createdAt,value
2022-09-17T00:00:55.202Z,81.88
2022-09-17T00:03:23.305Z,81.86
2022-09-17T00:05:49.985Z,82.01
2022-09-17T00:08:16.780Z,81.96
2022-09-17T00:10:44.779Z,81.92
2022-09-17T00:13:12.456Z,81.88
2022-09-17T00:15:44.258Z,82.05
2022-09-17T00:18:12.496Z,82.22
2022-09-17T00:20:45.196Z,82.67
2022-09-17T00:23:13.499Z,82.67
2022-09-17T00:25:42.519Z,82.72
2022-09-17T00:28:09.881Z,82.73
2022-09-17T00:30:42.902Z,82.76
2022-09-17T00:33:12.940Z,82.56
2022-09-17T00:35:39.645Z,82.65
2022-09-17T00:38:06.343Z,82.63
2022-09-17T00:40:33.274Z,82.57
2022-09-17T00:43:00.293Z,82.43
2022-09-17T00:45:28.818Z,82.48
2022-09-17T00:48:00.100Z,82.56
2022-09-17T00:50:31.757Z,82.52
2022-09-17T00:53:21.396Z,82.71
2022-09-17T00:56:06.997Z,82.43
2022-09-17T00:58:40.989Z,82.30
2022-09-17T01:01:08.398Z,82.41
2022-09-17T01:03:35.175Z,82.80
2022-09-17T01:06:46.670Z,82.66
2022-09-17T01:09:39.489Z,82.55
2022-09-17T01:12:25.191Z,82.59
2022-09-17T01:15:20.948Z,82.46
2022-09-17T01:18:11.985Z,82.49
2022-09-17T01:21:11.492Z,82.55
2022-09-17T01:23:47.236Z,82.28
2022-09-17T01:26:50.354Z,82.24
2022-09-17T01:29:23.904Z,82.10
2022-09-17T01:32:17.869Z,82.18
2022-09-17T01:35:01.435Z,82.44
2022-09-17T01:37:37.135Z,82.63
2022-09-17T01:40:12.646Z,82.70
2022-09-17T01:42:51.269Z,82.71
2022-09-17T01:45:27.455Z,82.70
2022-09-17T01:48:06.118Z,82.87
2022-09-17T01:50:47.159Z,82.63
2022-09-17T01:53:17.954Z,82.88
2022-09-17T01:55:49.258Z,82.97
2022-09-17T01:58:36.870Z,82.83
2022-09-17T02:01:07.727Z,82.64
2022-09-17T02:03:45.173Z,82.19
2022-09-17T02:06:22.816Z,82.05
2022-09-17T02:08:56.845Z,81.92
2022-09-17T02:11:24.055Z,81.80
2022-09-17T02:14:00.439Z,81.67
2022-09-17T02:16:30.503Z,81.72
2022-09-17T02:19:16.815Z,81.50
2022-09-17T02:21:48.917Z,81.23
2022-09-17T02:24:24.667Z,81.29
2022-09-17T02:27:07.814Z,81.64
2022-09-17T02:29:38.934Z,81.22
2022-09-17T02:32:06.546Z,81.43
2022-09-17T02:34:34.741Z,81.22
2022-09-17T02:37:03.318Z,81.32
2022-09-17T02:39:30.526Z,81.09
2022-09-17T02:42:23.412Z,81.19
2022-09-17T02:44:54.246Z,81.41
2022-09-17T02:47:49.720Z,81.64
2022-09-17T02:50:21.953Z,81.78
2022-09-17T02:53:06.874Z,82.06
2022-09-17T02:55:39.411Z,81.69
2022-09-17T02:58:30.606Z,81.55
2022-09-17T03:01:06.333Z,81.72
2022-09-17T03:03:43.823Z,82.04
2022-09-17T03:06:10.535Z,82.04
2022-09-17T03:08:40.686Z,82.05
2022-09-17T03:11:09.362Z,82.12
2022-09-17T03:13:36.754Z,82.17
2022-09-17T03:16:04.800Z,82.34
2022-09-17T03:18:32.086Z,82.59
2022-09-17T03:20:58.950Z,82.55
2022-09-17T03:23:26.685Z,82.48
2022-09-17T03:25:53.662Z,82.71
2022-09-17T03:28:20.390Z,82.27
2022-09-17T03:30:47.114Z,82.38
2022-09-17T03:33:14.125Z,82.23
2022-09-17T03:35:44.594Z,82.56
2022-09-17T03:38:12.507Z,82.57
2022-09-17T03:40:40.410Z,82.65
2022-09-17T03:43:07.460Z,82.49
2022-09-17T03:45:34.210Z,82.47
2022-09-17T03:48:01.127Z,82.50
2022-09-17T03:50:27.852Z,82.54
2022-09-17T03:52:54.507Z,82.46
2022-09-17T03:55:21.327Z,82.56
2022-09-17T03:57:48.042Z,82.49
2022-09-17T04:00:17.490Z,82.52
2022-09-17T04:02:44.528Z,82.65
2022-09-17T04:05:11.703Z,82.80
2022-09-17T04:07:40.455Z,83.12
2022-09-17T04:10:08.001Z,83.42
2022-09-17T04:12:34.810Z,83.23
2022-09-17T04:15:01.502Z,83.34
2022-09-17T04:17:28.209Z,83.20
2022-09-17T04:19:55.326Z,83.34
2022-09-17T04:22:22.168Z,83.23
2022-09-17T04:24:48.842Z,83.54
2022-09-17T04:27:15.819Z,83.44
2022-09-17T04:29:42.809Z,83.02
2022-09-17T04:32:09.507Z,82.70
2022-09-17T04:34:36.926Z,82.84
2022-09-17T04:37:03.709Z,82.82
2022-09-17T04:39:30.408Z,82.56
2022-09-17T04:41:57.119Z,82.46
2022-09-17T04:44:23.918Z,82.51
2022-09-17T04:46:50.724Z,82.47
2022-09-17T04:49:17.515Z,82.39
2022-09-17T04:51:44.415Z,82.85
2022-09-17T04:54:11.087Z,82.74
2022-09-17T04:56:38.072Z,83.14
2022-09-17T04:59:04.715Z,82.95
2022-09-17T05:01:31.487Z,82.87
2022-09-17T05:03:58.355Z,83.12
2022-09-17T05:06:25.251Z,82.84
2022-09-17T05:08:51.951Z,82.98
2022-09-17T05:11:18.768Z,83.31
2022-09-17T05:13:45.477Z,83.20
2022-09-17T05:16:12.389Z,83.04
2022-09-17T05:18:39.188Z,82.92
2022-09-17T05:21:06.096Z,82.95
2022-09-17T05:23:32.749Z,83.29
2022-09-17T05:26:00.674Z,83.19
2022-09-17T05:28:28.310Z,83.31
2022-09-17T05:30:55.200Z,82.96
2022-09-17T05:33:21.964Z,82.96
2022-09-17T05:35:48.755Z,82.92
2022-09-17T05:38:15.611Z,83.06
2022-09-17T05:40:42.363Z,82.87
2022-09-17T05:43:10.374Z,82.94
2022-09-17T05:45:38.332Z,82.90
2022-09-17T05:48:08.309Z,82.97
2022-09-17T05:50:34.928Z,83.14
2022-09-17T05:53:11.603Z,83.28
2022-09-17T05:55:39.154Z,83.42
2022-09-17T05:58:19.259Z,83.26
2022-09-17T06:00:49.001Z,83.13
2022-09-17T06:03:18.109Z,83.10
2022-09-17T06:05:56.678Z,83.07
2022-09-17T06:08:23.391Z,83.23
2022-09-17T06:10:50.383Z,83.41
2022-09-17T06:13:18.239Z,83.23
2022-09-17T06:15:53.333Z,83.58
2022-09-17T06:18:20.871Z,83.09
2022-09-17T06:21:04.068Z,82.74
2022-09-17T06:23:37.740Z,82.90
2022-09-17T06:26:06.255Z,82.93
2022-09-17T06:28:35.783Z,82.83
2022-09-17T06:31:06.643Z,82.73
2022-09-17T06:33:34.415Z,82.39
2022-09-17T06:36:14.130Z,82.87
2022-09-17T06:38:41.954Z,82.93
2022-09-17T06:41:09.108Z,82.69
2022-09-17T06:43:35.946Z,82.73
2022-09-17T06:46:06.280Z,82.68
2022-09-17T06:48:35.519Z,82.97
2022-09-17T06:51:04.711Z,82.59
2022-09-17T06:53:32.475Z,82.66
2022-09-17T06:56:05.234Z,82.49
2022-09-17T06:58:33.931Z,82.07
2022-09-17T07:01:01.680Z,81.86
2022-09-17T07:03:29.634Z,81.63
2022-09-17T07:05:56.782Z,81.60
2022-09-17T07:08:23.662Z,81.06
2022-09-17T07:10:50.567Z,80.42
2022-09-17T07:13:17.414Z,80.12
2022-09-17T07:15:44.268Z,78.78
2022-09-17T07:18:11.918Z,79.37
2022-09-17T07:20:39.307Z,78.80
2022-09-17T07:23:06.307Z,78.21
2022-09-17T07:25:33.064Z,77.72
2022-09-17T07:27:59.904Z,78.24
2022-09-17T07:30:26.806Z,78.23
2022-09-17T07:32:53.702Z,77.87
2022-09-17T07:35:20.450Z,78.01
2022-09-17T07:37:47.647Z,77.79
2022-09-17T07:40:14.604Z,76.62
2022-09-17T07:42:41.339Z,76.87
2022-09-17T07:45:10.022Z,76.09
2022-09-17T07:47:42.751Z,74.58
2022-09-17T07:50:09.850Z,74.54
2022-09-17T07:52:36.847Z,73.43
2022-09-17T07:55:03.735Z,74.49
2022-09-17T07:57:30.543Z,73.20
2022-09-17T07:59:57.386Z,71.98
2022-09-17T08:02:24.884Z,72.40
2022-09-17T08:04:51.836Z,73.35
2022-09-17T08:07:19.075Z,73.61
2022-09-17T08:09:45.890Z,73.56
2022-09-17T08:12:12.879Z,72.98
2022-09-17T08:14:39.713Z,73.50
2022-09-17T08:17:09.536Z,72.70
2022-09-17T08:19:36.342Z,72.25
2022-09-17T08:22:03.346Z,69.95
2022-09-17T08:24:30.292Z,69.92
2022-09-17T08:26:57.111Z,69.80
2022-09-17T08:29:24.065Z,70.79
2022-09-17T08:31:51.006Z,72.33
2022-09-17T08:34:17.958Z,74.70
2022-09-17T08:36:44.757Z,74.56
2022-09-17T08:39:12.400Z,75.05
2022-09-17T08:41:52.763Z,76.77
2022-09-17T08:44:27.726Z,76.70
2022-09-17T08:47:12.948Z,76.92
2022-09-17T08:49:54.826Z,76.04
2022-09-17T08:53:15.438Z,74.17
2022-09-17T08:55:45.142Z,72.76
2022-09-17T08:58:14.499Z,73.54
2022-09-17T09:00:47.389Z,73.41
2022-09-17T09:03:34.553Z,72.74
2022-09-17T09:06:02.269Z,72.00
2022-09-17T09:08:35.511Z,71.68
2022-09-17T09:11:05.531Z,70.48
2022-09-17T09:13:40.866Z,69.83
2022-09-17T09:16:16.168Z,70.40
2022-09-17T09:18:43.931Z,71.91
2022-09-17T09:21:39.343Z,71.56
2022-09-17T09:24:21.779Z,70.54
2022-09-17T09:27:04.253Z,69.51
2022-09-17T09:29:42.320Z,70.61
2022-09-17T09:32:27.080Z,68.60
2022-09-17T09:34:56.024Z,68.28
2022-09-17T09:37:30.135Z,69.04
2022-09-17T09:40:05.428Z,69.12
2022-09-17T09:42:39.542Z,68.66
2022-09-17T09:45:16.272Z,70.08
2022-09-17T09:48:00.916Z,70.87
2022-09-17T09:51:07.303Z,72.25
2022-09-17T09:53:59.155Z,73.22
2022-09-17T09:56:40.922Z,74.92
2022-09-17T09:59:08.855Z,75.73
2022-09-17T10:01:41.203Z,77.04
2022-09-17T10:04:18.321Z,77.14
2022-09-17T10:06:46.577Z,77.14
2022-09-17T10:09:15.419Z,79.41
2022-09-17T10:11:42.725Z,80.62
2022-09-17T10:14:25.751Z,81.11
2022-09-17T10:17:25.307Z,82.70
2022-09-17T10:20:12.292Z,82.31
2022-09-17T10:22:44.767Z,80.92
2022-09-17T10:25:29.762Z,80.75
2022-09-17T10:27:59.671Z,81.71
2022-09-17T10:30:27.752Z,81.06
2022-09-17T10:33:18.470Z,81.23
2022-09-17T10:35:58.166Z,79.59
2022-09-17T10:38:39.793Z,80.41
2022-09-17T10:41:09.326Z,81.82
2022-09-17T10:43:36.402Z,81.43
2022-09-17T10:46:03.671Z,82.18
2022-09-17T10:48:41.304Z,79.66
2022-09-17T10:51:10.358Z,79.19
2022-09-17T10:54:06.222Z,79.55
2022-09-17T10:56:40.132Z,80.33
2022-09-17T10:59:35.439Z,78.97
2022-09-17T11:02:34.919Z,78.29
2022-09-17T11:05:02.614Z,78.73
2022-09-17T11:07:50.319Z,76.75
2022-09-17T11:10:36.559Z,76.00
2022-09-17T11:13:38.268Z,75.00
2022-09-17T11:16:34.144Z,74.95
2022-09-17T11:19:08.954Z,75.83
2022-09-17T11:22:32.669Z,74.13
2022-09-17T11:25:25.419Z,74.11
2022-09-17T11:28:00.580Z,74.52
2022-09-17T11:30:53.885Z,74.88
2022-09-17T11:33:28.488Z,70.53
2022-09-17T11:36:05.450Z,70.70
2022-09-17T11:38:47.807Z,70.97
2022-09-17T11:41:20.509Z,68.01
2022-09-17T11:44:31.157Z,69.50
2022-09-17T11:47:08.246Z,68.07
2022-09-17T11:49:45.586Z,66.77
2022-09-17T11:52:20.610Z,64.45
2022-09-17T11:54:57.499Z,67.48
2022-09-17T11:57:37.824Z,65.64
2022-09-17T12:00:18.524Z,65.68
2022-09-17T12:02:58.622Z,65.55
2022-09-17T12:05:28.305Z,67.11
2022-09-17T12:08:04.578Z,69.59
2022-09-17T12:10:46.410Z,73.74
2022-09-17T12:13:31.325Z,75.64
2022-09-17T12:16:20.443Z,77.89
2022-09-17T12:19:05.932Z,74.18
2022-09-17T12:21:44.810Z,76.55
2022-09-17T12:24:28.584Z,78.84
2022-09-17T12:26:59.169Z,81.54
2022-09-17T12:30:11.053Z,81.73
2022-09-17T12:33:03.312Z,81.98
2022-09-17T12:36:02.490Z,80.68
2022-09-17T12:38:49.729Z,81.03
2022-09-17T12:41:22.514Z,80.02
2022-09-17T12:44:11.922Z,81.02
2022-09-17T12:46:57.150Z,80.99
2022-09-17T12:49:26.972Z,81.91
2022-09-17T12:52:12.501Z,81.33
2022-09-17T12:55:02.236Z,80.86
2022-09-17T12:57:47.420Z,80.48
2022-09-17T13:00:16.467Z,79.48
2022-09-17T13:02:56.365Z,78.36
2022-09-17T13:05:51.975Z,77.90
2022-09-17T13:08:57.518Z,80.45
2022-09-17T13:11:36.245Z,80.60
2022-09-17T13:14:17.971Z,79.11
2022-09-17T13:16:59.828Z,80.60
2022-09-17T13:19:44.985Z,80.72
2022-09-17T13:22:19.029Z,79.78
2022-09-17T13:24:49.150Z,79.58
2022-09-17T13:27:27.512Z,75.83
2022-09-17T13:29:54.244Z,78.07
2022-09-17T13:32:33.178Z,77.44
2022-09-17T13:35:11.991Z,76.39
2022-09-17T13:37:44.532Z,77.64
2022-09-17T13:40:29.609Z,76.38
2022-09-17T13:43:23.938Z,73.62
2022-09-17T13:45:59.689Z,71.96
2022-09-17T13:48:36.204Z,72.62
2022-09-17T13:51:30.754Z,72.20
2022-09-17T13:54:09.772Z,73.43
2022-09-17T13:56:46.568Z,76.96
2022-09-17T13:59:13.275Z,75.35
2022-09-17T14:01:49.222Z,75.71
2022-09-17T14:04:43.341Z,73.49
2022-09-17T14:07:34.313Z,71.22
2022-09-17T14:10:16.448Z,71.75
2022-09-17T14:12:44.945Z,71.56
2022-09-17T14:15:39.783Z,73.32
2022-09-17T14:18:28.067Z,69.10
2022-09-17T14:21:06.115Z,71.61
2022-09-17T14:23:46.434Z,71.75
2022-09-17T14:27:03.837Z,71.94
2022-09-17T14:29:43.296Z,71.74
2022-09-17T14:32:30.223Z,71.53
2022-09-17T14:34:57.806Z,69.33
2022-09-17T14:37:25.011Z,70.92
2022-09-17T14:39:52.687Z,66.86
2022-09-17T14:42:35.886Z,68.10
2022-09-17T14:45:08.659Z,68.84
2022-09-17T14:47:35.667Z,69.69
2022-09-17T14:50:26.591Z,71.47
2022-09-17T14:52:54.660Z,68.65
2022-09-17T14:55:26.752Z,68.41
2022-09-17T14:57:58.816Z,70.72
2022-09-17T15:00:33.245Z,69.60
2022-09-17T15:03:00.263Z,68.03
2022-09-17T15:05:42.692Z,66.52
2022-09-17T15:08:36.167Z,69.11
2022-09-17T15:11:11.556Z,69.57
2022-09-17T15:13:52.939Z,69.65
2022-09-17T15:16:28.309Z,68.55
2022-09-17T15:18:58.050Z,68.78
2022-09-17T15:21:37.150Z,68.20
2022-09-17T15:24:16.441Z,66.62
2022-09-17T15:26:46.028Z,62.01
2022-09-17T15:29:14.451Z,63.19
2022-09-17T15:31:41.745Z,62.35
2022-09-17T15:34:12.552Z,65.13
2022-09-17T15:36:39.548Z,65.93
2022-09-17T15:39:40.226Z,66.83
2022-09-17T15:42:22.597Z,66.09
2022-09-17T15:44:50.062Z,64.54
2022-09-17T15:47:53.043Z,65.84
2022-09-17T15:50:21.768Z,66.29
2022-09-17T15:52:49.596Z,65.55
2022-09-17T15:55:35.434Z,65.94
2022-09-17T15:58:06.073Z,65.69
2022-09-17T16:00:33.322Z,67.41
2022-09-17T16:03:36.900Z,67.46
2022-09-17T16:06:04.896Z,66.55
2022-09-17T16:08:35.128Z,66.40
2022-09-17T16:11:02.016Z,67.15
2022-09-17T16:13:28.882Z,66.51
2022-09-17T16:15:55.866Z,68.80
2022-09-17T16:18:22.796Z,69.44
2022-09-17T16:20:49.652Z,68.89
2022-09-17T16:23:16.576Z,68.89
2022-09-17T16:25:43.694Z,69.53
2022-09-17T16:28:13.823Z,69.82
2022-09-17T16:30:45.221Z,69.08
2022-09-17T16:33:14.564Z,69.40
2022-09-17T16:35:42.663Z,68.92
2022-09-17T16:38:10.622Z,69.03
2022-09-17T16:40:46.668Z,69.65
2022-09-17T16:43:13.842Z,67.72
2022-09-17T16:45:40.673Z,68.59
2022-09-17T16:48:07.856Z,68.25
2022-09-17T16:50:36.252Z,66.84
2022-09-17T16:53:05.302Z,66.29
2022-09-17T16:55:32.701Z,66.78
2022-09-17T16:57:59.768Z,66.48
2022-09-17T17:00:26.682Z,66.72
2022-09-17T17:02:56.307Z,68.15
2022-09-17T17:05:24.939Z,67.80
2022-09-17T17:07:52.002Z,67.14
2022-09-17T17:10:20.159Z,69.04
2022-09-17T17:12:47.668Z,69.34
2022-09-17T17:15:14.569Z,70.30
2022-09-17T17:17:41.472Z,70.43
2022-09-17T17:20:18.080Z,71.10
2022-09-17T17:22:45.391Z,71.14
2022-09-17T17:25:14.431Z,71.89
2022-09-17T17:27:41.441Z,73.06
2022-09-17T17:30:16.828Z,73.60
2022-09-17T17:32:44.796Z,73.52
2022-09-17T17:35:11.944Z,73.69
2022-09-17T17:37:38.837Z,74.03
2022-09-17T17:40:14.933Z,74.47
2022-09-17T17:42:44.247Z,74.60
2022-09-17T17:45:11.319Z,74.65
2022-09-17T17:47:38.348Z,74.86
2022-09-17T17:50:05.595Z,74.84
2022-09-17T17:52:32.425Z,74.93
2022-09-17T17:54:59.241Z,75.08
2022-09-17T17:57:26.136Z,75.26
2022-09-17T17:59:52.913Z,75.79
2022-09-17T18:02:19.811Z,75.96
2022-09-17T18:04:46.768Z,76.32
2022-09-17T18:07:13.838Z,76.30
2022-09-17T18:09:40.599Z,76.11
2022-09-17T18:12:07.561Z,77.01
2022-09-17T18:14:34.282Z,77.27
2022-09-17T18:17:01.195Z,77.34
2022-09-17T18:19:28.103Z,77.72
2022-09-17T18:21:55.375Z,78.20
2022-09-17T18:24:22.435Z,78.56
2022-09-17T18:26:49.755Z,79.40
2022-09-17T18:29:16.690Z,80.32
2022-09-17T18:31:44.786Z,80.31
2022-09-17T18:34:14.386Z,80.38
2022-09-17T18:36:42.333Z,80.53
2022-09-17T18:42:00.292Z,81.10
2022-09-17T18:44:27.138Z,81.31
2022-09-17T18:46:54.089Z,81.67
2022-09-17T18:49:21.141Z,81.80
2022-09-17T18:51:48.187Z,82.05
2022-09-17T18:54:15.196Z,81.70
2022-09-17T18:56:42.493Z,81.84
2022-09-17T18:59:10.429Z,82.02
2022-09-17T19:01:37.677Z,82.04
2022-09-17T19:04:05.174Z,82.39
2022-09-17T19:06:32.513Z,82.61
2022-09-17T19:09:01.373Z,82.57
2022-09-17T19:11:28.478Z,82.28
2022-09-17T19:13:55.562Z,82.70
2022-09-17T19:16:23.415Z,82.66
2022-09-17T19:18:50.513Z,82.78
2022-09-17T19:21:20.823Z,82.80
2022-09-17T19:23:52.415Z,82.46
2022-09-17T19:26:22.543Z,82.50
2022-09-17T19:28:53.822Z,82.67
2022-09-17T19:31:21.390Z,82.85
2022-09-17T19:33:48.498Z,82.78
2022-09-17T19:36:17.481Z,82.79
2022-09-17T19:38:45.688Z,83.01
2022-09-17T19:41:15.330Z,83.13
2022-09-17T19:43:42.369Z,83.27
2022-09-17T19:46:12.518Z,83.46
2022-09-17T19:48:56.445Z,83.57
2022-09-17T19:51:26.057Z,83.53
2022-09-17T19:53:53.365Z,83.81
2022-09-17T19:56:23.263Z,84.24
2022-09-17T19:58:50.797Z,84.49
2022-09-17T20:01:18.628Z,84.76
2022-09-17T20:03:46.420Z,85.10
2022-09-17T20:06:16.985Z,85.20
2022-09-17T20:08:47.034Z,85.08
2022-09-17T20:11:15.517Z,85.02
2022-09-17T20:13:42.638Z,85.09
2022-09-17T20:16:12.694Z,85.01
2022-09-17T20:18:40.011Z,85.11
2022-09-17T20:21:14.898Z,85.30
2022-09-17T20:23:42.246Z,85.16
2022-09-17T20:26:09.639Z,85.15
2022-09-17T20:28:36.573Z,85.23
2022-09-17T20:31:14.664Z,85.45
2022-09-17T20:33:42.102Z,85.30
2022-09-17T20:36:13.165Z,85.29
2022-09-17T20:39:22.450Z,85.46
2022-09-17T20:41:28.086Z,85.64
2022-09-17T20:43:55.185Z,85.62
2022-09-17T20:46:28.556Z,85.64
2022-09-17T20:48:57.919Z,85.27
2022-09-17T20:51:27.372Z,85.13
2022-09-17T20:53:54.383Z,85.25
2022-09-17T20:56:24.162Z,85.00
2022-09-17T20:59:07.871Z,85.18
2022-09-17T21:01:37.051Z,84.92
2022-09-17T21:04:07.105Z,85.06
2022-09-17T21:06:37.602Z,84.98
2022-09-17T21:09:06.504Z,85.34
2022-09-17T21:11:34.759Z,85.62
2022-09-17T21:14:02.516Z,85.67
2022-09-17T21:16:29.810Z,85.74
2022-09-17T21:18:59.019Z,85.54
2022-09-17T21:21:26.642Z,85.87
2022-09-17T21:23:54.461Z,85.59
2022-09-17T21:26:24.629Z,85.69
2022-09-17T21:28:54.049Z,85.84
2022-09-17T21:31:23.308Z,86.02
2022-09-17T21:33:54.271Z,85.97
2022-09-17T21:36:22.831Z,86.20
2022-09-17T21:38:54.938Z,86.24
2022-09-17T21:41:23.308Z,86.29
2022-09-17T21:43:51.939Z,86.68
2022-09-17T21:46:26.880Z,86.58
2022-09-17T21:49:00.261Z,86.78
2022-09-17T21:51:30.805Z,86.63
2022-09-17T21:54:03.382Z,86.61
2022-09-17T21:56:31.613Z,86.74
2022-09-17T21:59:04.269Z,86.70
2022-09-17T22:01:35.595Z,86.81
2022-09-17T22:04:02.574Z,86.55
2022-09-17T22:06:31.881Z,86.43
2022-09-17T22:09:02.160Z,86.40
2022-09-17T22:11:35.234Z,86.51
2022-09-17T22:14:13.716Z,86.57
2022-09-17T22:16:44.669Z,86.51
2022-09-17T22:19:15.020Z,86.56
2022-09-17T22:21:47.518Z,86.70
2022-09-17T22:24:16.236Z,86.63
2022-09-17T22:26:45.698Z,86.66
2022-09-17T22:29:15.259Z,86.80
2022-09-17T22:31:42.774Z,86.71
2022-09-17T22:34:15.322Z,86.91
2022-09-17T22:36:42.447Z,86.82
2022-09-17T22:39:09.651Z,86.74
2022-09-17T22:41:42.989Z,86.74
2022-09-17T22:44:13.312Z,86.45
2022-09-17T22:46:41.261Z,86.56
2022-09-17T22:49:09.976Z,86.46
2022-09-17T22:51:37.198Z,86.40
2022-09-17T22:54:04.453Z,86.74
2022-09-17T22:56:31.480Z,86.83
2022-09-17T22:58:58.932Z,86.80
2022-09-17T23:01:31.805Z,86.94
2022-09-17T23:04:00.250Z,87.03
2022-09-17T23:06:30.054Z,87.20
2022-09-17T23:08:57.867Z,87.49
2022-09-17T23:11:30.717Z,87.56
2022-09-17T23:14:03.709Z,87.63
2022-09-17T23:16:39.815Z,87.63
2022-09-17T23:19:06.963Z,87.59
2022-09-17T23:21:33.949Z,87.70
2022-09-17T23:24:01.113Z,87.57
2022-09-17T23:26:28.103Z,87.88
2022-09-17T23:28:54.843Z,87.86
2022-09-17T23:31:25.957Z,88.45
2022-09-17T23:33:53.910Z,88.55
2022-09-17T23:36:23.469Z,88.74
2022-09-17T23:38:51.386Z,89.01
2022-09-17T23:41:23.803Z,89.15
2022-09-17T23:43:53.208Z,89.22
2022-09-17T23:46:22.653Z,89.49
2022-09-17T23:48:51.801Z,89.43
2022-09-17T23:51:18.509Z,89.67
2022-09-17T23:53:45.396Z,89.72
2022-09-17T23:56:14.744Z,90.06
2022-09-17T23:58:41.530Z,89.70
